createdAt,value
2023-04-26T00:00:24.629Z,51.69
2023-04-26T00:02:51.167Z,51.72
2023-04-26T00:05:19.677Z,51.60
2023-04-26T00:07:46.579Z,51.41
2023-04-26T00:10:12.921Z,51.45
2023-04-26T00:12:41.121Z,51.57
2023-04-26T00:15:07.690Z,51.38
2023-04-26T00:17:34.113Z,51.43
2023-04-26T00:20:00.501Z,51.56
2023-04-26T00:22:26.918Z,51.46
2023-04-26T00:24:53.320Z,51.54
2023-04-26T00:27:19.671Z,51.37
2023-04-26T00:29:46.024Z,51.51
2023-04-26T00:32:12.524Z,51.29
2023-04-26T00:34:38.956Z,51.54
2023-04-26T00:37:05.326Z,51.56
2023-04-26T00:39:31.707Z,51.23
2023-04-26T00:41:58.052Z,51.52
2023-04-26T00:44:24.394Z,51.13
2023-04-26T00:46:51.707Z,51.19
2023-04-26T00:49:18.859Z,51.33
2023-04-26T00:51:45.254Z,51.26
2023-04-26T00:54:12.237Z,50.98
2023-04-26T00:56:38.566Z,51.25
2023-04-26T00:59:04.922Z,51.19
2023-04-26T01:01:31.281Z,50.99
2023-04-26T01:03:57.820Z,51.18
2023-04-26T01:06:24.402Z,51.02
2023-04-26T01:08:51.729Z,51.07
2023-04-26T01:11:19.757Z,51.26
2023-04-26T01:13:46.283Z,51.15
2023-04-26T01:16:12.667Z,51.23
2023-04-26T01:18:39.960Z,51.26
2023-04-26T01:21:06.310Z,51.10
2023-04-26T01:23:32.679Z,51.28
2023-04-26T01:25:59.036Z,50.89
2023-04-26T01:28:25.698Z,50.88
2023-04-26T01:30:52.079Z,50.92
2023-04-26T01:33:18.450Z,50.77
2023-04-26T01:35:44.781Z,51.14
2023-04-26T01:38:11.162Z,50.98
2023-04-26T01:40:37.735Z,51.12
2023-04-26T01:43:06.369Z,50.88
2023-04-26T01:45:32.749Z,51.08
2023-04-26T01:48:17.620Z,50.89
2023-04-26T01:50:43.954Z,51.07
2023-04-26T01:53:12.830Z,51.22
2023-04-26T01:55:39.176Z,51.38
2023-04-26T01:58:05.560Z,51.40
2023-04-26T02:00:33.349Z,51.32
2023-04-26T02:02:59.801Z,51.53
2023-04-26T02:05:26.341Z,51.57
2023-04-26T02:07:52.703Z,51.54
2023-04-26T02:10:19.054Z,51.55
2023-04-26T02:12:45.421Z,51.35
2023-04-26T02:15:11.768Z,51.49
2023-04-26T02:17:38.582Z,51.58
2023-04-26T02:20:05.012Z,51.38
2023-04-26T02:22:31.591Z,51.55
2023-04-26T02:24:58.488Z,51.42
2023-04-26T02:27:27.825Z,51.47
2023-04-26T02:29:54.379Z,51.29
2023-04-26T02:32:20.743Z,51.50
2023-04-26T02:34:47.113Z,51.53
2023-04-26T02:37:13.729Z,51.31
2023-04-26T02:39:40.078Z,51.24
2023-04-26T02:42:10.280Z,51.27
2023-04-26T02:44:37.432Z,51.55
2023-04-26T02:47:03.991Z,51.43
2023-04-26T02:49:30.718Z,51.43
2023-04-26T02:51:57.069Z,51.51
2023-04-26T02:54:23.867Z,51.51
2023-04-26T02:56:51.167Z,51.50
2023-04-26T02:59:17.521Z,51.55
2023-04-26T03:01:43.884Z,51.78
2023-04-26T03:04:10.570Z,51.71
2023-04-26T03:06:37.664Z,51.95
2023-04-26T03:09:05.557Z,51.76
2023-04-26T03:11:32.099Z,51.86
2023-04-26T03:13:58.478Z,51.99
2023-04-26T03:16:24.868Z,51.93
2023-04-26T03:18:51.510Z,51.98
2023-04-26T03:21:18.113Z,51.85
2023-04-26T03:23:44.741Z,51.85
2023-04-26T03:26:11.126Z,51.81
2023-04-26T03:28:37.579Z,52.02
2023-04-26T03:31:03.996Z,51.88
2023-04-26T03:33:31.037Z,51.96
2023-04-26T03:35:57.502Z,51.99
2023-04-26T03:38:24.957Z,52.03
2023-04-26T03:40:51.430Z,52.04
2023-04-26T03:43:17.790Z,51.98
2023-04-26T03:45:46.524Z,52.03
2023-04-26T03:48:12.942Z,52.00
2023-04-26T03:50:39.527Z,51.73
2023-04-26T03:53:05.898Z,51.90
2023-04-26T03:55:32.276Z,51.76
2023-04-26T03:57:58.790Z,51.94
2023-04-26T04:00:25.426Z,51.87
2023-04-26T04:02:52.106Z,51.85
2023-04-26T04:05:23.981Z,51.99
2023-04-26T04:07:50.473Z,51.86
2023-04-26T04:10:17.166Z,51.96
2023-04-26T04:12:44.506Z,52.00
2023-04-26T04:15:11.065Z,51.83
2023-04-26T04:17:40.465Z,51.89
2023-04-26T04:20:07.429Z,51.93
2023-04-26T04:22:33.874Z,51.93
2023-04-26T04:25:00.567Z,51.95
2023-04-26T04:27:27.051Z,52.17
2023-04-26T04:29:56.365Z,52.00
2023-04-26T04:32:23.828Z,51.82
2023-04-26T04:34:53.848Z,51.85
2023-04-26T04:37:21.174Z,51.82
2023-04-26T04:39:47.583Z,51.82
2023-04-26T04:42:14.844Z,51.80
2023-04-26T04:44:41.513Z,51.88
2023-04-26T04:47:08.025Z,51.72
2023-04-26T04:49:34.369Z,51.72
2023-04-26T04:52:00.956Z,51.79
2023-04-26T04:54:27.357Z,51.75
2023-04-26T04:56:53.830Z,51.85
2023-04-26T04:59:20.389Z,52.07
2023-04-26T05:01:48.250Z,51.88
2023-04-26T05:04:15.572Z,51.81
2023-04-26T05:06:42.835Z,51.87
2023-04-26T05:09:10.304Z,51.87
2023-04-26T05:11:36.877Z,51.83
2023-04-26T05:14:04.536Z,51.96
2023-04-26T05:16:31.145Z,51.79
2023-04-26T05:18:59.407Z,51.80
2023-04-26T05:21:25.935Z,51.77
2023-04-26T05:23:52.662Z,51.82
2023-04-26T05:26:19.243Z,51.63
2023-04-26T05:28:55.939Z,51.65
2023-04-26T05:31:40.719Z,51.78
2023-04-26T05:34:12.397Z,51.71
2023-04-26T05:36:39.925Z,51.59
2023-04-26T05:39:07.583Z,51.67
2023-04-26T05:41:33.996Z,51.59
2023-04-26T05:44:00.433Z,51.85
2023-04-26T05:46:26.965Z,51.82
2023-04-26T05:48:53.423Z,51.75
2023-04-26T05:51:20.493Z,51.26
2023-04-26T05:53:46.853Z,46.50
2023-04-26T05:56:13.607Z,48.59
2023-04-26T05:58:40.068Z,50.25
2023-04-26T06:01:06.423Z,50.56
2023-04-26T06:03:34.108Z,50.41
2023-04-26T06:06:01.438Z,50.21
2023-04-26T06:08:28.621Z,50.05
2023-04-26T06:10:55.025Z,50.22
2023-04-26T06:13:21.401Z,50.64
2023-04-26T06:15:47.780Z,50.89
2023-04-26T06:18:14.910Z,50.90
2023-04-26T06:20:42.285Z,51.28
2023-04-26T06:23:09.562Z,51.30
2023-04-26T06:25:37.055Z,51.41
2023-04-26T06:28:03.866Z,51.26
2023-04-26T06:30:31.159Z,51.40
2023-04-26T06:33:00.133Z,51.38
2023-04-26T06:35:26.649Z,51.76
2023-04-26T06:37:53.132Z,51.75
2023-04-26T06:40:20.191Z,51.36
2023-04-26T06:42:46.611Z,51.35
2023-04-26T06:45:25.177Z,51.75
2023-04-26T06:47:52.092Z,51.77
2023-04-26T06:50:18.582Z,51.78
2023-04-26T06:52:44.933Z,51.57
2023-04-26T06:55:11.297Z,51.99
2023-04-26T06:57:37.665Z,51.58
2023-04-26T07:00:04.473Z,51.57
2023-04-26T07:02:30.920Z,52.00
2023-04-26T07:04:57.750Z,51.40
2023-04-26T07:07:24.226Z,51.61
2023-04-26T07:09:50.583Z,51.58
2023-04-26T07:12:16.936Z,51.38
2023-04-26T07:14:43.426Z,51.67
2023-04-26T07:17:10.220Z,51.12
2023-04-26T07:19:36.652Z,46.99
2023-04-26T07:22:03.436Z,47.62
2023-04-26T07:24:29.839Z,47.02
2023-04-26T07:26:56.234Z,47.18
2023-04-26T07:29:22.689Z,47.80
2023-04-26T07:31:49.019Z,48.40
2023-04-26T07:34:15.394Z,48.67
2023-04-26T07:36:41.753Z,48.03
2023-04-26T07:39:09.831Z,48.24
2023-04-26T07:41:36.273Z,48.16
2023-04-26T07:44:02.803Z,47.80
2023-04-26T07:46:29.172Z,47.37
2023-04-26T07:48:55.724Z,47.15
2023-04-26T07:51:22.096Z,47.18
2023-04-26T07:53:48.751Z,46.65
2023-04-26T07:56:15.456Z,46.57
2023-04-26T07:58:41.828Z,46.76
2023-04-26T08:01:08.736Z,46.05
2023-04-26T08:03:35.570Z,47.04
2023-04-26T08:06:02.387Z,46.53
2023-04-26T08:08:28.963Z,40.58
2023-04-26T08:10:55.707Z,41.03
2023-04-26T08:13:22.245Z,40.59
2023-04-26T08:15:48.687Z,41.61
2023-04-26T08:18:15.021Z,42.35
2023-04-26T08:20:41.371Z,42.34
2023-04-26T08:23:07.740Z,38.77
2023-04-26T08:25:34.875Z,39.55
2023-04-26T08:28:01.869Z,38.63
2023-04-26T08:30:28.215Z,41.37
2023-04-26T08:32:54.637Z,43.33
2023-04-26T08:35:22.243Z,43.48
2023-04-26T08:37:48.603Z,43.77
2023-04-26T08:40:15.126Z,43.99
2023-04-26T08:42:44.526Z,43.94
2023-04-26T08:45:13.549Z,43.97
2023-04-26T08:47:39.880Z,44.18
2023-04-26T08:50:06.480Z,44.40
2023-04-26T08:52:32.847Z,44.72
2023-04-26T08:54:59.646Z,44.46
2023-04-26T08:57:26.243Z,44.52
2023-04-26T08:59:56.125Z,44.41
2023-04-26T09:02:22.910Z,44.46
2023-04-26T09:04:49.820Z,44.59
2023-04-26T09:07:19.445Z,45.09
2023-04-26T09:09:46.541Z,44.88
2023-04-26T09:12:12.889Z,45.11
2023-04-26T09:14:39.242Z,45.06
2023-04-26T09:17:05.645Z,45.25
2023-04-26T09:19:38.338Z,45.47
2023-04-26T09:22:04.680Z,45.62
2023-04-26T09:24:47.288Z,45.59
2023-04-26T09:27:13.709Z,45.48
2023-04-26T09:29:40.065Z,45.57
2023-04-26T09:32:07.899Z,45.89
2023-04-26T09:34:43.944Z,45.88
2023-04-26T09:37:12.196Z,45.85
2023-04-26T09:39:40.270Z,45.77
2023-04-26T09:42:09.504Z,45.74
2023-04-26T09:44:35.983Z,46.05
2023-04-26T09:47:05.948Z,45.93
2023-04-26T09:49:46.659Z,45.97
2023-04-26T09:52:13.064Z,46.01
2023-04-26T09:54:40.754Z,45.94
2023-04-26T09:57:07.253Z,46.15
2023-04-26T09:59:40.425Z,46.11
2023-04-26T10:02:08.160Z,46.48
2023-04-26T10:04:34.529Z,46.33
2023-04-26T10:07:01.044Z,46.22
2023-04-26T10:09:27.547Z,46.36
2023-04-26T10:11:53.867Z,46.41
2023-04-26T10:14:20.195Z,46.73
2023-04-26T10:16:46.580Z,46.57
2023-04-26T10:19:12.926Z,46.46
2023-04-26T10:21:39.270Z,46.44
2023-04-26T10:24:05.903Z,46.43
2023-04-26T10:26:52.725Z,46.54
2023-04-26T10:29:19.796Z,46.54
2023-04-26T10:32:05.176Z,46.55
2023-04-26T10:34:32.034Z,46.61
2023-04-26T10:37:16.848Z,46.63
2023-04-26T10:39:43.594Z,46.66
2023-04-26T10:42:25.825Z,46.73
2023-04-26T10:44:56.459Z,46.92
2023-04-26T10:47:33.451Z,46.87
2023-04-26T10:50:09.773Z,46.84
2023-04-26T10:52:36.798Z,47.04
2023-04-26T10:55:03.156Z,46.85
2023-04-26T10:57:46.353Z,47.05
2023-04-26T11:00:17.147Z,46.81
2023-04-26T11:02:46.969Z,47.11
2023-04-26T11:05:32.091Z,47.13
2023-04-26T11:08:25.011Z,47.00
2023-04-26T11:10:52.376Z,47.03
2023-04-26T11:13:19.581Z,47.10
2023-04-26T11:15:46.453Z,47.25
2023-04-26T11:18:12.827Z,47.29
2023-04-26T11:20:39.177Z,47.21
2023-04-26T11:23:05.538Z,47.31
2023-04-26T11:25:31.916Z,47.25
2023-04-26T11:27:59.230Z,47.28
2023-04-26T11:30:25.720Z,47.32
2023-04-26T11:32:52.123Z,47.29
2023-04-26T11:35:18.507Z,47.48
2023-04-26T11:37:45.419Z,47.32
2023-04-26T11:40:11.919Z,47.25
2023-04-26T11:42:38.295Z,47.47
2023-04-26T11:45:07.072Z,47.21
2023-04-26T11:47:34.071Z,44.22
2023-04-26T11:51:26.811Z,45.82
2023-04-26T11:53:54.283Z,45.94
2023-04-26T11:56:21.747Z,45.77
2023-04-26T11:58:48.441Z,46.11
2023-04-26T12:01:21.762Z,46.08
2023-04-26T12:03:49.915Z,46.10
2023-04-26T12:06:16.391Z,46.18
2023-04-26T12:08:48.649Z,46.44
2023-04-26T12:11:16.249Z,46.65
2023-04-26T12:13:42.575Z,46.99
2023-04-26T12:16:22.368Z,46.67
2023-04-26T12:18:52.657Z,44.04
2023-04-26T12:21:19.324Z,41.47
2023-04-26T12:23:47.880Z,39.95
2023-04-26T12:26:14.259Z,38.75
2023-04-26T12:28:41.314Z,38.05
2023-04-26T12:31:08.217Z,37.59
2023-04-26T12:33:34.761Z,38.25
2023-04-26T12:36:07.982Z,38.44
2023-04-26T12:38:34.329Z,40.07
2023-04-26T12:41:01.292Z,39.53
2023-04-26T12:43:27.658Z,39.87
2023-04-26T12:45:54.064Z,40.10
2023-04-26T12:48:20.516Z,40.34
2023-04-26T12:50:46.895Z,40.66
2023-04-26T12:53:13.956Z,41.07
2023-04-26T12:55:40.301Z,39.89
2023-04-26T12:58:06.709Z,41.47
2023-04-26T13:00:33.041Z,40.92
2023-04-26T13:02:59.559Z,40.60
2023-04-26T13:05:26.055Z,41.01
2023-04-26T13:07:52.669Z,35.98
2023-04-26T13:10:19.067Z,32.44
2023-04-26T13:12:45.780Z,31.96
2023-04-26T13:15:12.152Z,31.64
2023-04-26T13:17:38.716Z,32.44
2023-04-26T13:20:06.201Z,32.46
2023-04-26T13:22:32.557Z,32.23
2023-04-26T13:24:58.976Z,33.13
2023-04-26T13:27:25.633Z,33.70
2023-04-26T13:29:52.373Z,34.87
2023-04-26T13:32:18.704Z,35.61
2023-04-26T13:34:47.809Z,35.56
2023-04-26T13:37:14.546Z,36.20
2023-04-26T13:39:40.919Z,36.58
2023-04-26T13:42:07.330Z,37.38
2023-04-26T13:44:33.955Z,38.18
2023-04-26T13:47:00.855Z,38.83
2023-04-26T13:49:27.354Z,38.77
2023-04-26T13:51:53.752Z,38.73
2023-04-26T13:54:21.966Z,39.27
2023-04-26T13:56:48.543Z,39.70
2023-04-26T13:59:14.990Z,39.74
2023-04-26T14:01:41.547Z,40.10
2023-04-26T14:04:11.279Z,40.28
2023-04-26T14:06:37.758Z,40.33
2023-04-26T14:09:06.924Z,40.40
2023-04-26T14:11:33.252Z,40.60
2023-04-26T14:13:59.597Z,40.87
2023-04-26T14:16:26.043Z,41.13
2023-04-26T14:18:52.456Z,41.04
2023-04-26T14:21:18.875Z,41.08
2023-04-26T14:23:45.239Z,41.31
2023-04-26T14:26:11.891Z,41.48
2023-04-26T14:28:38.501Z,41.42
2023-04-26T14:31:04.844Z,41.81
2023-04-26T14:33:31.508Z,41.74
2023-04-26T14:35:57.862Z,41.71
2023-04-26T14:38:24.231Z,41.87
2023-04-26T14:40:50.909Z,42.01
2023-04-26T14:43:17.262Z,41.96
2023-04-26T14:45:44.896Z,42.04
2023-04-26T14:48:12.412Z,42.10
2023-04-26T14:50:38.851Z,41.96
2023-04-26T14:53:05.227Z,42.33
2023-04-26T14:55:31.598Z,42.46
2023-04-26T14:57:57.955Z,42.54
2023-04-26T15:00:25.496Z,42.48
2023-04-26T15:02:51.973Z,42.48
2023-04-26T15:05:18.609Z,42.78
2023-04-26T15:07:44.933Z,42.74
2023-04-26T15:10:11.381Z,42.81
2023-04-26T15:12:37.733Z,42.98
2023-04-26T15:15:04.207Z,43.00
2023-04-26T15:17:31.742Z,43.07
2023-04-26T15:19:58.094Z,42.89
2023-04-26T15:22:24.451Z,43.25
2023-04-26T15:24:51.112Z,43.06
2023-04-26T15:27:17.750Z,43.22
2023-04-26T15:29:44.100Z,42.92
2023-04-26T15:32:10.777Z,43.34
2023-04-26T15:34:40.716Z,43.42
2023-04-26T15:37:07.302Z,43.42
2023-04-26T15:39:33.674Z,43.47
2023-04-26T15:42:00.032Z,43.71
2023-04-26T15:44:26.703Z,43.37
2023-04-26T15:46:53.050Z,43.39
2023-04-26T15:49:19.409Z,43.55
2023-04-26T15:51:45.808Z,43.66
2023-04-26T15:54:12.157Z,43.63
2023-04-26T15:56:38.476Z,43.62
2023-04-26T15:59:04.816Z,43.87
2023-04-26T16:01:31.235Z,43.82
2023-04-26T16:03:57.859Z,43.88
2023-04-26T16:06:24.342Z,43.81
2023-04-26T16:08:50.721Z,43.91
2023-04-26T16:11:17.088Z,43.81
2023-04-26T16:13:44.535Z,43.86
2023-04-26T16:16:11.494Z,43.82
2023-04-26T16:18:40.869Z,43.95
2023-04-26T16:21:08.161Z,44.10
2023-04-26T16:23:34.511Z,44.07
2023-04-26T16:26:01.404Z,44.11
2023-04-26T16:28:27.767Z,44.13
2023-04-26T16:30:54.166Z,44.11
2023-04-26T16:33:22.663Z,44.16
2023-04-26T16:35:49.951Z,44.14
2023-04-26T16:38:16.288Z,44.21
2023-04-26T16:40:42.637Z,44.01
2023-04-26T16:43:12.291Z,43.91
2023-04-26T16:45:38.857Z,44.18
2023-04-26T16:48:05.273Z,44.40
2023-04-26T16:50:31.654Z,44.24
2023-04-26T16:52:57.985Z,44.47
2023-04-26T16:55:24.418Z,44.57
2023-04-26T16:57:51.164Z,44.35
2023-04-26T17:00:17.627Z,44.47
2023-04-26T17:02:44.160Z,44.64
2023-04-26T17:05:10.905Z,44.58
2023-04-26T17:07:37.474Z,44.64
2023-04-26T17:10:03.890Z,44.85
2023-04-26T17:12:30.314Z,44.91
2023-04-26T17:14:56.755Z,44.67
2023-04-26T17:17:23.092Z,45.26
2023-04-26T17:19:49.427Z,44.92
2023-04-26T17:22:15.805Z,44.93
2023-04-26T17:24:42.146Z,45.11
2023-04-26T17:27:08.559Z,45.00
2023-04-26T17:29:34.993Z,45.30
2023-04-26T17:32:01.441Z,45.02
2023-04-26T17:34:27.794Z,45.34
2023-04-26T17:36:54.137Z,45.16
2023-04-26T17:39:20.502Z,45.47
2023-04-26T17:41:46.863Z,45.20
2023-04-26T17:44:13.210Z,45.52
2023-04-26T17:46:39.547Z,45.90
2023-04-26T17:49:07.172Z,45.79
2023-04-26T17:51:33.546Z,45.86
2023-04-26T17:53:59.904Z,45.74
2023-04-26T17:56:26.477Z,46.11
2023-04-26T17:58:52.848Z,46.01
2023-04-26T18:01:21.101Z,45.78
2023-04-26T18:03:47.669Z,46.04
2023-04-26T18:06:14.092Z,45.96
2023-04-26T18:08:41.032Z,45.77
2023-04-26T18:11:07.447Z,45.67
2023-04-26T18:13:33.804Z,45.68
2023-04-26T18:16:00.684Z,45.61
2023-04-26T18:18:27.997Z,45.40
2023-04-26T18:20:54.522Z,45.14
2023-04-26T18:23:21.567Z,45.44
2023-04-26T18:25:50.420Z,45.40
2023-04-26T18:28:16.768Z,45.32
2023-04-26T18:30:43.154Z,44.95
2023-04-26T18:33:09.542Z,44.95
2023-04-26T18:35:36.620Z,44.75
2023-04-26T18:38:03.769Z,44.62
2023-04-26T18:40:30.094Z,45.00
2023-04-26T18:42:56.528Z,44.77
2023-04-26T18:45:22.901Z,45.23
2023-04-26T18:47:49.261Z,45.18
2023-04-26T18:50:15.720Z,45.14
2023-04-26T18:52:42.080Z,45.27
2023-04-26T18:55:08.665Z,45.23
2023-04-26T18:57:35.013Z,45.09
2023-04-26T19:00:01.566Z,45.30
2023-04-26T19:02:27.968Z,45.58
2023-04-26T19:04:54.470Z,45.42
2023-04-26T19:07:20.944Z,45.51
2023-04-26T19:09:54.210Z,45.70
2023-04-26T19:12:21.149Z,45.65
2023-04-26T19:14:47.505Z,45.52
2023-04-26T19:17:13.831Z,45.73
2023-04-26T19:19:40.208Z,45.87
2023-04-26T19:22:06.573Z,45.83
2023-04-26T19:24:32.998Z,45.78
2023-04-26T19:26:59.369Z,45.88
2023-04-26T19:29:25.756Z,45.68
2023-04-26T19:31:52.255Z,45.70
2023-04-26T19:34:18.670Z,45.73
2023-04-26T19:36:45.001Z,45.73
2023-04-26T19:39:11.348Z,46.03
2023-04-26T19:41:37.692Z,45.87
2023-04-26T19:44:04.065Z,45.98
2023-04-26T19:46:30.875Z,46.00
2023-04-26T19:48:57.254Z,45.91
2023-04-26T19:51:23.609Z,46.14
2023-04-26T19:53:49.970Z,46.10
2023-04-26T19:56:16.544Z,45.90
2023-04-26T19:58:43.361Z,46.04
2023-04-26T20:01:09.776Z,46.32
2023-04-26T20:03:38.135Z,46.24
2023-04-26T20:06:04.699Z,46.13
2023-04-26T20:08:31.589Z,46.13
2023-04-26T20:11:01.445Z,46.41
2023-04-26T20:13:28.794Z,46.29
2023-04-26T20:15:55.142Z,46.26
2023-04-26T20:18:22.542Z,46.11
2023-04-26T20:20:49.282Z,46.22
2023-04-26T20:23:15.784Z,46.36
2023-04-26T20:25:42.118Z,46.41
2023-04-26T20:28:08.455Z,46.57
2023-04-26T20:30:34.800Z,46.42
2023-04-26T20:33:01.179Z,46.41
2023-04-26T20:35:27.597Z,46.34
2023-04-26T20:37:54.133Z,46.50
2023-04-26T20:40:20.473Z,46.62
2023-04-26T20:42:46.822Z,46.55
2023-04-26T20:45:13.294Z,46.63
2023-04-26T20:47:39.718Z,46.72
2023-04-26T20:50:06.283Z,46.64
2023-04-26T20:52:32.707Z,46.41
2023-04-26T20:54:59.061Z,46.57
2023-04-26T20:57:25.884Z,46.73
2023-04-26T20:59:52.235Z,46.93
2023-04-26T21:02:18.640Z,46.53
2023-04-26T21:04:45.296Z,46.76
2023-04-26T21:07:11.739Z,46.76
2023-04-26T21:09:38.062Z,46.93
2023-04-26T21:12:04.498Z,47.00
2023-04-26T21:14:31.101Z,46.98
2023-04-26T21:16:57.486Z,46.76
2023-04-26T21:19:24.199Z,46.88
2023-04-26T21:21:51.057Z,46.99
2023-04-26T21:24:17.561Z,47.01
2023-04-26T21:26:43.922Z,47.08
2023-04-26T21:29:12.245Z,47.05
2023-04-26T21:31:38.647Z,47.05
2023-04-26T21:34:05.033Z,47.17
2023-04-26T21:36:32.363Z,47.10
2023-04-26T21:38:58.698Z,47.04
2023-04-26T21:41:25.812Z,47.14
2023-04-26T21:43:55.949Z,47.03
2023-04-26T21:46:22.354Z,47.12
2023-04-26T21:48:48.721Z,46.98
2023-04-26T21:51:15.110Z,47.17
2023-04-26T21:53:41.444Z,46.93
2023-04-26T21:56:07.837Z,47.14
2023-04-26T21:58:34.331Z,46.87
2023-04-26T22:01:07.901Z,47.18
2023-04-26T22:03:34.461Z,47.26
2023-04-26T22:06:00.818Z,47.10
2023-04-26T22:08:27.157Z,46.97
2023-04-26T22:10:53.520Z,47.11
2023-04-26T22:13:19.873Z,47.29
2023-04-26T22:15:46.276Z,47.10
2023-04-26T22:18:12.616Z,47.18
2023-04-26T22:20:38.945Z,47.23
2023-04-26T22:23:05.335Z,47.02
2023-04-26T22:25:31.661Z,46.88
2023-04-26T22:27:58.047Z,46.67
2023-04-26T22:30:26.222Z,46.69
2023-04-26T22:32:54.492Z,46.68
2023-04-26T22:35:21.613Z,46.73
2023-04-26T22:37:48.028Z,46.78
2023-04-26T22:40:14.600Z,46.84
2023-04-26T22:42:40.992Z,46.58
2023-04-26T22:45:07.500Z,46.58
2023-04-26T22:47:33.896Z,46.71
2023-04-26T22:50:00.315Z,46.82
2023-04-26T22:52:31.606Z,46.82
2023-04-26T22:54:58.359Z,46.74
2023-04-26T22:57:24.727Z,46.83
2023-04-26T22:59:51.068Z,46.76
2023-04-26T23:02:18.256Z,46.58
2023-04-26T23:04:44.646Z,46.75
2023-04-26T23:07:11.092Z,46.82
2023-04-26T23:09:37.544Z,46.76
2023-04-26T23:12:04.370Z,46.76
2023-04-26T23:14:30.739Z,46.63
2023-04-26T23:16:59.781Z,46.56
2023-04-26T23:19:26.686Z,46.69
2023-04-26T23:21:53.033Z,46.41
2023-04-26T23:24:19.385Z,46.66
2023-04-26T23:26:45.745Z,46.68
2023-04-26T23:29:12.273Z,46.58
2023-04-26T23:31:38.766Z,46.79
2023-04-26T23:34:05.111Z,46.70
2023-04-26T23:36:33.404Z,46.68
2023-04-26T23:38:59.765Z,46.68
2023-04-26T23:41:26.284Z,46.95
2023-04-26T23:43:52.605Z,46.77
2023-04-26T23:46:19.037Z,46.82
2023-04-26T23:48:45.470Z,46.58
2023-04-26T23:51:11.883Z,46.65
2023-04-26T23:53:39.621Z,46.67
2023-04-26T23:56:06.533Z,46.78
2023-04-26T23:58:32.871Z,46.83
